sensor_id;sensor_type;location;lat;lon;timestamp;pressure;altitude;pressure_sealevel;temperature;humidity
31761;BME280;18335;51.486;7.562;2023-07-30T00:01:53;99613.13;;;19.25;100.00
31761;BME280;18335;51.486;7.562;2023-07-30T00:04:19;99607.94;;;19.17;100.00
31761;BME280;18335;51.486;7.562;2023-07-30T00:06:46;99609.16;;;19.21;100.00
31761;BME280;18335;51.486;7.562;2023-07-30T00:09:13;99605.97;;;19.06;100.00
31761;BME280;18335;51.486;7.562;2023-07-30T00:11:40;99603.97;;;19.13;100.00
31761;BME280;18335;51.486;7.562;2023-07-30T00:14:08;99609.13;;;19.09;100.00
31761;BME280;18335;51.486;7.562;2023-07-30T00:16:35;99617.97;;;19.00;100.00
31761;BME280;18335;51.486;7.562;2023-07-30T00:19:02;99614.16;;;19.01;100.00
31761;BME280;18335;51.486;7.562;2023-07-30T00:21:28;99617.34;;;18.86;100.00
31761;BME280;18335;51.486;7.562;2023-07-30T00:23:55;99610.03;;;18.92;100.00
31761;BME280;18335;51.486;7.562;2023-07-30T00:26:22;99615.16;;;18.88;100.00
31761;BME280;18335;51.486;7.562;2023-07-30T00:28:51;99611.97;;;18.73;100.00
31761;BME280;18335;51.486;7.562;2023-07-30T00:31:19;99605.25;;;18.99;100.00
31761;BME280;18335;51.486;7.562;2023-07-30T00:33:46;99610.38;;;18.84;100.00
31761;BME280;18335;51.486;7.562;2023-07-30T00:36:13;99609.22;;;18.73;100.00
31761;BME280;18335;51.486;7.562;2023-07-30T00:38:40;99613.75;;;18.67;100.00
31761;BME280;18335;51.486;7.562;2023-07-30T00:41:06;99617.91;;;18.58;100.00
31761;BME280;18335;51.486;7.562;2023-07-30T00:43:33;99608.03;;;18.51;100.00
31761;BME280;18335;51.486;7.562;2023-07-30T00:46:00;99610.56;;;18.52;100.00
31761;BME280;18335;51.486;7.562;2023-07-30T00:48:28;99608.09;;;18.44;100.00
31761;BME280;18335;51.486;7.562;2023-07-30T00:50:57;99619.59;;;18.41;100.00
31761;BME280;18335;51.486;7.562;2023-07-30T00:53:26;99616.97;;;18.10;100.00
31761;BME280;18335;51.486;7.562;2023-07-30T00:55:53;99614.22;;;18.46;100.00
31761;BME280;18335;51.486;7.562;2023-07-30T00:58:20;99620.13;;;18.13;100.00
31761;BME280;18335;51.486;7.562;2023-07-30T01:00:48;99622.28;;;18.11;100.00
31761;BME280;18335;51.486;7.562;2023-07-30T01:03:15;99616.31;;;18.14;100.00
31761;BME280;18335;51.486;7.562;2023-07-30T01:05:43;99621.91;;;18.08;100.00
31761;BME280;18335;51.486;7.562;2023-07-30T01:08:10;99631.28;;;18.07;100.00
31761;BME280;18335;51.486;7.562;2023-07-30T01:10:38;99628.78;;;17.99;100.00
31761;BME280;18335;51.486;7.562;2023-07-30T01:13:07;99627.19;;;17.91;100.00
31761;BME280;18335;51.486;7.562;2023-07-30T01:15:35;99631.69;;;17.86;100.00
31761;BME280;18335;51.486;7.562;2023-07-30T01:18:03;99637.69;;;17.83;100.00
31761;BME280;18335;51.486;7.562;2023-07-30T01:20:29;99627.66;;;17.63;100.00
31761;BME280;18335;51.486;7.562;2023-07-30T01:22:58;99634.63;;;17.66;100.00
31761;BME280;18335;51.486;7.562;2023-07-30T01:25:27;99637.50;;;17.53;100.00
31761;BME280;18335;51.486;7.562;2023-07-30T01:27:59;99644.50;;;17.55;100.00
31761;BME280;18335;51.486;7.562;2023-07-30T01:30:30;99641.75;;;17.49;100.00
31761;BME280;18335;51.486;7.562;2023-07-30T01:32:58;99643.66;;;17.55;100.00
31761;BME280;18335;51.486;7.562;2023-07-30T01:35:27;99651.44;;;17.64;100.00
31761;BME280;18335;51.486;7.562;2023-07-30T01:37:54;99648.88;;;17.63;100.00
31761;BME280;18335;51.486;7.562;2023-07-30T01:40:23;99651.88;;;17.61;100.00
31761;BME280;18335;51.486;7.562;2023-07-30T01:42:50;99656.53;;;17.61;100.00
31761;BME280;18335;51.486;7.562;2023-07-30T01:45:17;99652.34;;;17.52;100.00
31761;BME280;18335;51.486;7.562;2023-07-30T01:47:44;99650.25;;;17.47;100.00
31761;BME280;18335;51.486;7.562;2023-07-30T01:50:11;99653.91;;;17.41;100.00
31761;BME280;18335;51.486;7.562;2023-07-30T01:52:38;99654.84;;;17.60;100.00
31761;BME280;18335;51.486;7.562;2023-07-30T01:55:05;99654.78;;;17.35;100.00
31761;BME280;18335;51.486;7.562;2023-07-30T01:57:34;99656.75;;;17.59;100.00
31761;BME280;18335;51.486;7.562;2023-07-30T02:00:00;99660.75;;;17.63;100.00
31761;BME280;18335;51.486;7.562;2023-07-30T02:02:30;99653.91;;;17.41;100.00
31761;BME280;18335;51.486;7.562;2023-07-30T02:04:57;99657.00;;;17.51;100.00
31761;BME280;18335;51.486;7.562;2023-07-30T02:07:23;99658.06;;;17.50;100.00
31761;BME280;18335;51.486;7.562;2023-07-30T02:09:51;99660.53;;;17.34;100.00
31761;BME280;18335;51.486;7.562;2023-07-30T02:12:17;99652.22;;;17.40;100.00
31761;BME280;18335;51.486;7.562;2023-07-30T02:14:45;99656.72;;;17.35;100.00
31761;BME280;18335;51.486;7.562;2023-07-30T02:17:12;99652.38;;;17.45;100.00
31761;BME280;18335;51.486;7.562;2023-07-30T02:19:39;99653.84;;;17.23;100.00
31761;BME280;18335;51.486;7.562;2023-07-30T02:22:05;99655.97;;;17.21;100.00
31761;BME280;18335;51.486;7.562;2023-07-30T02:24:33;99660.53;;;17.34;100.00
31761;BME280;18335;51.486;7.562;2023-07-30T02:26:59;99653.41;;;17.26;100.00
31761;BME280;18335;51.486;7.562;2023-07-30T02:29:27;99653.00;;;17.23;100.00
31761;BME280;18335;51.486;7.562;2023-07-30T02:31:55;99651.47;;;17.27;100.00
31761;BME280;18335;51.486;7.562;2023-07-30T02:34:22;99653.47;;;17.13;100.00
31761;BME280;18335;51.486;7.562;2023-07-30T02:36:49;99654.22;;;17.27;100.00
31761;BME280;18335;51.486;7.562;2023-07-30T02:39:16;99652.16;;;17.22;100.00
31761;BME280;18335;51.486;7.562;2023-07-30T02:41:42;99652.25;;;17.02;100.00
31761;BME280;18335;51.486;7.562;2023-07-30T02:44:09;99656.84;;;17.15;100.00
31761;BME280;18335;51.486;7.562;2023-07-30T02:46:36;99653.44;;;17.20;100.00
31761;BME280;18335;51.486;7.562;2023-07-30T02:49:04;99660.69;;;17.14;100.00
31761;BME280;18335;51.486;7.562;2023-07-30T02:51:30;99660.75;;;17.01;100.00
31761;BME280;18335;51.486;7.562;2023-07-30T02:53:58;99662.63;;;17.07;100.00
31761;BME280;18335;51.486;7.562;2023-07-30T02:56:25;99667.28;;;17.06;100.00
31761;BME280;18335;51.486;7.562;2023-07-30T02:58:52;99664.78;;;17.05;100.00
31761;BME280;18335;51.486;7.562;2023-07-30T03:01:19;99665.22;;;17.02;100.00
31761;BME280;18335;51.486;7.562;2023-07-30T03:03:45;99666.66;;;17.11;100.00
31761;BME280;18335;51.486;7.562;2023-07-30T03:06:14;99670.47;;;17.10;100.00
31761;BME280;18335;51.486;7.562;2023-07-30T03:08:42;99670.06;;;17.06;100.00
31761;BME280;18335;51.486;7.562;2023-07-30T03:11:09;99672.59;;;17.08;100.00
31761;BME280;18335;51.486;7.562;2023-07-30T03:13:35;99668.31;;;17.12;100.00
31761;BME280;18335;51.486;7.562;2023-07-30T03:16:02;99662.13;;;17.23;100.00
31761;BME280;18335;51.486;7.562;2023-07-30T03:18:29;99673.38;;;17.15;100.00
31761;BME280;18335;51.486;7.562;2023-07-30T03:20:58;99666.69;;;17.04;100.00
31761;BME280;18335;51.486;7.562;2023-07-30T03:23:26;99671.72;;;17.14;100.00
31761;BME280;18335;51.486;7.562;2023-07-30T03:25:52;99667.75;;;17.03;100.00
31761;BME280;18335;51.486;7.562;2023-07-30T03:28:19;99667.47;;;17.11;100.00
31761;BME280;18335;51.486;7.562;2023-07-30T03:30:46;99659.88;;;17.07;100.00
31761;BME280;18335;51.486;7.562;2023-07-30T03:33:13;99665.84;;;17.04;100.00
31761;BME280;18335;51.486;7.562;2023-07-30T03:35:40;99668.47;;;16.86;100.00
31761;BME280;18335;51.486;7.562;2023-07-30T03:38:08;99668.50;;;16.79;100.00
31761;BME280;18335;51.486;7.562;2023-07-30T03:40:36;99670.28;;;17.05;100.00
31761;BME280;18335;51.486;7.562;2023-07-30T03:43:03;99669.03;;;17.01;100.00
31761;BME280;18335;51.486;7.562;2023-07-30T03:45:29;99680.53;;;16.91;100.00
31761;BME280;18335;51.486;7.562;2023-07-30T03:47:56;99672.66;;;16.95;100.00
31761;BME280;18335;51.486;7.562;2023-07-30T03:50:23;99671.63;;;16.96;100.00
31761;BME280;18335;51.486;7.562;2023-07-30T03:52:50;99679.63;;;17.04;100.00
31761;BME280;18335;51.486;7.562;2023-07-30T03:55:17;99685.44;;;16.83;100.00
31761;BME280;18335;51.486;7.562;2023-07-30T03:57:45;99676.19;;;16.64;100.00
31761;BME280;18335;51.486;7.562;2023-07-30T04:00:12;99681.59;;;16.90;100.00
31761;BME280;18335;51.486;7.562;2023-07-30T04:02:41;99683.94;;;16.87;100.00
31761;BME280;18335;51.486;7.562;2023-07-30T04:05:08;99679.47;;;16.92;100.00
31761;BME280;18335;51.486;7.562;2023-07-30T04:07:35;99681.16;;;16.93;100.00
31761;BME280;18335;51.486;7.562;2023-07-30T04:10:01;99687.16;;;16.84;100.00
31761;BME280;18335;51.486;7.562;2023-07-30T04:12:28;99689.50;;;16.80;100.00
31761;BME280;18335;51.486;7.562;2023-07-30T04:14:56;99700.38;;;16.55;100.00
31761;BME280;18335;51.486;7.562;2023-07-30T04:17:23;99696.13;;;16.66;100.00
31761;BME280;18335;51.486;7.562;2023-07-30T04:19:50;99688.03;;;16.78;100.00
31761;BME280;18335;51.486;7.562;2023-07-30T04:22:16;99692.41;;;16.92;100.00
31761;BME280;18335;51.486;7.562;2023-07-30T04:24:43;99688.53;;;16.99;100.00
31761;BME280;18335;51.486;7.562;2023-07-30T04:27:10;99687.59;;;16.81;100.00
31761;BME280;18335;51.486;7.562;2023-07-30T04:29:37;99686.25;;;16.96;100.00
31761;BME280;18335;51.486;7.562;2023-07-30T04:32:06;99682.44;;;16.91;100.00
31761;BME280;18335;51.486;7.562;2023-07-30T04:34:33;99691.94;;;17.01;100.00
31761;BME280;18335;51.486;7.562;2023-07-30T04:37:00;99694.28;;;16.98;100.00
31761;BME280;18335;51.486;7.562;2023-07-30T04:39:29;99692.38;;;17.30;100.00
31761;BME280;18335;51.486;7.562;2023-07-30T04:41:56;99695.66;;;17.20;100.00
31761;BME280;18335;51.486;7.562;2023-07-30T04:44:22;99696.25;;;17.22;100.00
31761;BME280;18335;51.486;7.562;2023-07-30T04:46:49;99695.72;;;17.38;100.00
31761;BME280;18335;51.486;7.562;2023-07-30T04:49:18;99693.34;;;17.17;100.00
31761;BME280;18335;51.486;7.562;2023-07-30T04:51:44;99682.13;;;17.43;100.00
31761;BME280;18335;51.486;7.562;2023-07-30T04:54:11;99688.41;;;17.57;100.00
31761;BME280;18335;51.486;7.562;2023-07-30T04:56:38;99694.28;;;17.67;100.00
31761;BME280;18335;51.486;7.562;2023-07-30T04:59:05;99683.28;;;17.54;100.00
31761;BME280;18335;51.486;7.562;2023-07-30T05:01:32;99691.22;;;17.75;100.00
31761;BME280;18335;51.486;7.562;2023-07-30T05:03:59;99681.75;;;17.89;100.00
31761;BME280;18335;51.486;7.562;2023-07-30T05:06:27;99679.69;;;17.85;100.00
31761;BME280;18335;51.486;7.562;2023-07-30T05:08:53;99681.75;;;17.89;100.00
31761;BME280;18335;51.486;7.562;2023-07-30T05:11:21;99685.53;;;17.95;100.00
31761;BME280;18335;51.486;7.562;2023-07-30T05:13:47;99681.28;;;18.17;100.00
31761;BME280;18335;51.486;7.562;2023-07-30T05:16:14;99683.94;;;18.05;100.00
31761;BME280;18335;51.486;7.562;2023-07-30T05:18:41;99690.16;;;18.01;100.00
31761;BME280;18335;51.486;7.562;2023-07-30T05:21:08;99686.00;;;17.92;100.00
31761;BME280;18335;51.486;7.562;2023-07-30T05:23:35;99693.13;;;17.99;100.00
31761;BME280;18335;51.486;7.562;2023-07-30T05:26:02;99686.59;;;17.94;100.00
31761;BME280;18335;51.486;7.562;2023-07-30T05:28:29;99705.06;;;17.93;100.00
31761;BME280;18335;51.486;7.562;2023-07-30T05:30:55;99693.06;;;18.06;100.00
31761;BME280;18335;51.486;7.562;2023-07-30T05:33:22;99693.50;;;18.28;100.00
31761;BME280;18335;51.486;7.562;2023-07-30T05:35:49;99697.09;;;18.28;100.00
31761;BME280;18335;51.486;7.562;2023-07-30T05:38:16;99697.19;;;17.97;100.00
31761;BME280;18335;51.486;7.562;2023-07-30T05:40:44;99707.38;;;17.96;100.00
31761;BME280;18335;51.486;7.562;2023-07-30T05:43:11;99689.81;;;18.15;100.00
31761;BME280;18335;51.486;7.562;2023-07-30T05:45:38;99706.88;;;18.06;100.00
31761;BME280;18335;51.486;7.562;2023-07-30T05:48:04;99704.06;;;18.12;100.00
31761;BME280;18335;51.486;7.562;2023-07-30T05:50:31;99697.50;;;17.89;100.00
31761;BME280;18335;51.486;7.562;2023-07-30T05:52:58;99694.38;;;18.03;100.00
31761;BME280;18335;51.486;7.562;2023-07-30T05:55:24;99699.53;;;18.18;100.00
31761;BME280;18335;51.486;7.562;2023-07-30T05:57:52;99695.84;;;18.06;100.00
31761;BME280;18335;51.486;7.562;2023-07-30T06:00:20;99697.13;;;18.03;100.00
31761;BME280;18335;51.486;7.562;2023-07-30T06:02:47;99694.56;;;18.27;100.00
31761;BME280;18335;51.486;7.562;2023-07-30T06:05:14;99687.25;;;18.14;100.00
31761;BME280;18335;51.486;7.562;2023-07-30T06:07:41;99690.66;;;17.91;100.00
31761;BME280;18335;51.486;7.562;2023-07-30T06:10:08;99696.41;;;18.33;100.00
31761;BME280;18335;51.486;7.562;2023-07-30T06:12:35;99703.00;;;18.32;100.00
31761;BME280;18335;51.486;7.562;2023-07-30T06:15:05;99696.53;;;18.19;100.00
31761;BME280;18335;51.486;7.562;2023-07-30T06:17:32;99694.88;;;18.37;100.00
31761;BME280;18335;51.486;7.562;2023-07-30T06:19:58;99693.72;;;18.26;100.00
31761;BME280;18335;51.486;7.562;2023-07-30T06:22:25;99700.59;;;18.17;100.00
31761;BME280;18335;51.486;7.562;2023-07-30T06:24:51;99710.13;;;18.21;100.00
31761;BME280;18335;51.486;7.562;2023-07-30T06:27:18;99705.72;;;18.13;100.00
31761;BME280;18335;51.486;7.562;2023-07-30T06:29:45;99705.94;;;18.37;100.00
31761;BME280;18335;51.486;7.562;2023-07-30T06:32:14;99701.00;;;18.20;100.00
31761;BME280;18335;51.486;7.562;2023-07-30T06:34:40;99703.59;;;18.15;100.00
31761;BME280;18335;51.486;7.562;2023-07-30T06:37:07;99715.72;;;18.14;100.00
31761;BME280;18335;51.486;7.562;2023-07-30T06:39:34;99719.50;;;17.95;100.00
31761;BME280;18335;51.486;7.562;2023-07-30T06:42:00;99723.66;;;18.04;100.00
31761;BME280;18335;51.486;7.562;2023-07-30T06:44:27;99721.13;;;18.03;100.00
31761;BME280;18335;51.486;7.562;2023-07-30T06:46:54;99722.84;;;18.04;100.00
31761;BME280;18335;51.486;7.562;2023-07-30T06:49:22;99728.09;;;18.30;100.00
31761;BME280;18335;51.486;7.562;2023-07-30T06:51:48;99730.41;;;18.33;100.00
31761;BME280;18335;51.486;7.562;2023-07-30T06:54:15;99728.81;;;18.19;100.00
31761;BME280;18335;51.486;7.562;2023-07-30T06:56:42;99736.03;;;18.20;100.00
31761;BME280;18335;51.486;7.562;2023-07-30T06:59:09;99739.34;;;18.29;100.00
31761;BME280;18335;51.486;7.562;2023-07-30T07:01:35;99742.91;;;18.36;100.00
31761;BME280;18335;51.486;7.562;2023-07-30T07:04:02;99742.78;;;18.06;100.00
31761;BME280;18335;51.486;7.562;2023-07-30T07:06:30;99740.31;;;18.16;100.00
31761;BME280;18335;51.486;7.562;2023-07-30T07:08:57;99743.28;;;18.21;100.00
31761;BME280;18335;51.486;7.562;2023-07-30T07:11:23;99741.66;;;18.32;100.00
31761;BME280;18335;51.486;7.562;2023-07-30T07:13:50;99734.66;;;18.11;100.00
31761;BME280;18335;51.486;7.562;2023-07-30T07:16:17;99739.31;;;18.10;100.00
31761;BME280;18335;51.486;7.562;2023-07-30T07:18:44;99745.47;;;17.88;100.00
31761;BME280;18335;51.486;7.562;2023-07-30T07:21:10;99747.03;;;18.02;100.00
31761;BME280;18335;51.486;7.562;2023-07-30T07:23:38;99745.25;;;18.14;100.00
31761;BME280;18335;51.486;7.562;2023-07-30T07:26:05;99750.44;;;18.04;100.00
31761;BME280;18335;51.486;7.562;2023-07-30T07:28:32;99756.28;;;18.14;100.00
31761;BME280;18335;51.486;7.562;2023-07-30T07:30:59;99761.19;;;18.12;100.00
31761;BME280;18335;51.486;7.562;2023-07-30T07:33:26;99756.22;;;18.20;100.00
31761;BME280;18335;51.486;7.562;2023-07-30T07:36:02;99762.31;;;18.04;100.00
31761;BME280;18335;51.486;7.562;2023-07-30T07:38:29;99762.66;;;18.14;100.00
31761;BME280;18335;51.486;7.562;2023-07-30T07:40:57;99769.63;;;18.17;100.00
31761;BME280;18335;51.486;7.562;2023-07-30T07:43:24;99774.19;;;18.05;100.00
31761;BME280;18335;51.486;7.562;2023-07-30T07:45:51;99766.38;;;18.02;100.00
31761;BME280;18335;51.486;7.562;2023-07-30T07:48:18;99771.09;;;18.19;100.00
31761;BME280;18335;51.486;7.562;2023-07-30T07:50:45;99775.50;;;18.02;100.00
31761;BME280;18335;51.486;7.562;2023-07-30T07:53:12;99778.34;;;17.89;100.00
31761;BME280;18335;51.486;7.562;2023-07-30T07:55:39;99773.63;;;17.96;100.00
31761;BME280;18335;51.486;7.562;2023-07-30T07:58:07;99770.44;;;17.99;100.00
31761;BME280;18335;51.486;7.562;2023-07-30T08:00:33;99771.81;;;17.84;100.00
31761;BME280;18335;51.486;7.562;2023-07-30T08:03:00;99779.16;;;18.21;100.00
31761;BME280;18335;51.486;7.562;2023-07-30T08:05:29;99778.31;;;18.20;100.00
31761;BME280;18335;51.486;7.562;2023-07-30T08:07:56;99771.03;;;18.26;100.00
31761;BME280;18335;51.486;7.562;2023-07-30T08:10:22;99765.06;;;18.29;100.00
31761;BME280;18335;51.486;7.562;2023-07-30T08:12:49;99775.22;;;18.35;100.00
31761;BME280;18335;51.486;7.562;2023-07-30T08:15:17;99767.78;;;18.60;100.00
31761;BME280;18335;51.486;7.562;2023-07-30T08:17:44;99769.44;;;18.61;100.00
31761;BME280;18335;51.486;7.562;2023-07-30T08:20:11;99772.06;;;18.56;100.00
31761;BME280;18335;51.486;7.562;2023-07-30T08:22:38;99766.72;;;18.37;100.00
31761;BME280;18335;51.486;7.562;2023-07-30T08:25:05;99768.66;;;18.91;100.00
31761;BME280;18335;51.486;7.562;2023-07-30T08:27:32;99765.06;;;18.54;100.00
31761;BME280;18335;51.486;7.562;2023-07-30T08:29:59;99766.53;;;18.74;100.00
31761;BME280;18335;51.486;7.562;2023-07-30T08:32:27;99769.22;;;18.63;100.00
31761;BME280;18335;51.486;7.562;2023-07-30T08:34:54;99771.53;;;18.41;100.00
31761;BME280;18335;51.486;7.562;2023-07-30T08:37:21;99774.50;;;18.64;100.00
31761;BME280;18335;51.486;7.562;2023-07-30T08:39:47;99765.75;;;18.49;100.00
31761;BME280;18335;51.486;7.562;2023-07-30T08:42:14;99777.00;;;18.72;100.00
31761;BME280;18335;51.486;7.562;2023-07-30T08:44:41;99771.28;;;18.86;100.00
31761;BME280;18335;51.486;7.562;2023-07-30T08:47:08;99768.22;;;18.94;100.00
31761;BME280;18335;51.486;7.562;2023-07-30T08:49:36;99765.16;;;18.84;100.00
31761;BME280;18335;51.486;7.562;2023-07-30T08:52:03;99775.97;;;18.85;100.00
31761;BME280;18335;51.486;7.562;2023-07-30T08:54:31;99769.91;;;18.95;100.00
31761;BME280;18335;51.486;7.562;2023-07-30T08:56:58;99769.69;;;18.78;100.00
31761;BME280;18335;51.486;7.562;2023-07-30T08:59:27;99765.75;;;18.86;100.00
31761;BME280;18335;51.486;7.562;2023-07-30T09:01:57;99768.94;;;19.37;100.00
31761;BME280;18335;51.486;7.562;2023-07-30T09:04:25;99778.09;;;19.38;100.00
31761;BME280;18335;51.486;7.562;2023-07-30T09:06:53;99789.19;;;18.83;100.00
31761;BME280;18335;51.486;7.562;2023-07-30T09:09:20;99790.69;;;19.33;100.00
31761;BME280;18335;51.486;7.562;2023-07-30T09:11:51;99784.81;;;19.60;100.00
31761;BME280;18335;51.486;7.562;2023-07-30T09:14:19;99780.63;;;19.69;100.00
31761;BME280;18335;51.486;7.562;2023-07-30T09:16:46;99783.59;;;19.85;100.00
31761;BME280;18335;51.486;7.562;2023-07-30T09:19:16;99782.78;;;19.37;100.00
31761;BME280;18335;51.486;7.562;2023-07-30T09:21:43;99784.81;;;20.01;100.00
31761;BME280;18335;51.486;7.562;2023-07-30T09:24:11;99782.47;;;19.75;100.00
31761;BME280;18335;51.486;7.562;2023-07-30T09:26:45;99769.75;;;19.85;100.00
31761;BME280;18335;51.486;7.562;2023-07-30T09:29:13;99776.19;;;20.21;100.00
31761;BME280;18335;51.486;7.562;2023-07-30T09:31:46;99781.03;;;20.25;100.00
31761;BME280;18335;51.486;7.562;2023-07-30T09:34:17;99781.50;;;20.80;100.00
31761;BME280;18335;51.486;7.562;2023-07-30T09:36:45;99780.81;;;20.50;100.00
31761;BME280;18335;51.486;7.562;2023-07-30T09:39:18;99782.25;;;20.64;100.00
31761;BME280;18335;51.486;7.562;2023-07-30T09:41:45;99790.38;;;21.06;100.00
31761;BME280;18335;51.486;7.562;2023-07-30T09:44:12;99797.28;;;20.91;100.00
31761;BME280;18335;51.486;7.562;2023-07-30T09:46:43;99792.31;;;21.57;100.00
31761;BME280;18335;51.486;7.562;2023-07-30T09:49:11;99791.50;;;21.05;100.00
31761;BME280;18335;51.486;7.562;2023-07-30T09:51:38;99796.78;;;21.18;100.00
31761;BME280;18335;51.486;7.562;2023-07-30T09:54:06;99796.31;;;21.09;100.00
31761;BME280;18335;51.486;7.562;2023-07-30T09:56:34;99799.47;;;20.89;100.00
31761;BME280;18335;51.486;7.562;2023-07-30T09:59:01;99790.88;;;21.82;100.00
31761;BME280;18335;51.486;7.562;2023-07-30T10:01:29;99783.78;;;21.75;100.00
31761;BME280;18335;51.486;7.562;2023-07-30T10:04:05;99793.34;;;21.95;100.00
31761;BME280;18335;51.486;7.562;2023-07-30T10:06:36;99797.28;;;21.15;100.00
31761;BME280;18335;51.486;7.562;2023-07-30T10:09:05;99793.03;;;21.35;100.00
31761;BME280;18335;51.486;7.562;2023-07-30T10:11:36;99793.50;;;21.21;100.00
31761;BME280;18335;51.486;7.562;2023-07-30T10:14:03;99792.75;;;21.37;100.00
31761;BME280;18335;51.486;7.562;2023-07-30T10:16:30;99782.66;;;21.59;100.00
31761;BME280;18335;51.486;7.562;2023-07-30T10:18:57;99784.72;;;21.12;100.00
31761;BME280;18335;51.486;7.562;2023-07-30T10:21:25;99783.19;;;22.01;100.00
31761;BME280;18335;51.486;7.562;2023-07-30T10:23:59;99795.00;;;22.41;100.00
31761;BME280;18335;51.486;7.562;2023-07-30T10:26:27;99784.78;;;22.14;100.00
31761;BME280;18335;51.486;7.562;2023-07-30T10:29:13;99773.09;;;22.45;100.00
31761;BME280;18335;51.486;7.562;2023-07-30T10:31:40;99775.34;;;23.41;100.00
31761;BME280;18335;51.486;7.562;2023-07-30T10:34:08;99779.66;;;22.94;100.00
31761;BME280;18335;51.486;7.562;2023-07-30T10:36:41;99772.84;;;22.30;100.00
31761;BME280;18335;51.486;7.562;2023-07-30T10:39:11;99776.06;;;22.93;100.00
31761;BME280;18335;51.486;7.562;2023-07-30T10:41:38;99777.41;;;22.69;100.00
31761;BME280;18335;51.486;7.562;2023-07-30T10:44:05;99775.63;;;22.30;100.00
31761;BME280;18335;51.486;7.562;2023-07-30T10:46:33;99775.94;;;22.17;100.00
31761;BME280;18335;51.486;7.562;2023-07-30T10:49:00;99770.56;;;22.27;100.00
31761;BME280;18335;51.486;7.562;2023-07-30T10:51:27;99774.56;;;22.86;100.00
31761;BME280;18335;51.486;7.562;2023-07-30T10:53:54;99776.31;;;22.37;100.00
31761;BME280;18335;51.486;7.562;2023-07-30T10:56:22;99777.97;;;22.54;100.00
31761;BME280;18335;51.486;7.562;2023-07-30T10:58:50;99780.69;;;22.66;100.00
31761;BME280;18335;51.486;7.562;2023-07-30T11:01:18;99775.09;;;23.04;100.00
31761;BME280;18335;51.486;7.562;2023-07-30T11:03:49;99777.28;;;22.81;100.00
31761;BME280;18335;51.486;7.562;2023-07-30T11:06:21;99767.03;;;22.48;100.00
31761;BME280;18335;51.486;7.562;2023-07-30T11:08:49;99765.47;;;22.74;100.00
31761;BME280;18335;51.486;7.562;2023-07-30T11:11:16;99769.81;;;22.15;100.00
31761;BME280;18335;51.486;7.562;2023-07-30T11:13:44;99773.75;;;22.69;100.00
31761;BME280;18335;51.486;7.562;2023-07-30T11:16:12;99767.88;;;22.48;100.00
31761;BME280;18335;51.486;7.562;2023-07-30T11:18:40;99773.09;;;22.45;100.00
31761;BME280;18335;51.486;7.562;2023-07-30T11:21:10;99772.94;;;22.18;100.00
31761;BME280;18335;51.486;7.562;2023-07-30T11:23:39;99783.25;;;21.89;100.00
31761;BME280;18335;51.486;7.562;2023-07-30T11:26:08;99778.53;;;21.90;100.00
31761;BME280;18335;51.486;7.562;2023-07-30T11:28:36;99780.38;;;21.56;100.00
31761;BME280;18335;51.486;7.562;2023-07-30T11:31:05;99774.78;;;22.46;100.00
31761;BME280;18335;51.486;7.562;2023-07-30T11:33:32;99777.44;;;23.12;100.00
31761;BME280;18335;51.486;7.562;2023-07-30T11:36:00;99778.59;;;23.17;100.00
31761;BME280;18335;51.486;7.562;2023-07-30T11:38:30;99776.59;;;22.90;100.00
31761;BME280;18335;51.486;7.562;2023-07-30T11:40:58;99785.13;;;23.27;100.00
31761;BME280;18335;51.486;7.562;2023-07-30T11:43:25;99784.91;;;23.50;100.00
31761;BME280;18335;51.486;7.562;2023-07-30T11:46:09;99785.44;;;22.87;100.00
31761;BME280;18335;51.486;7.562;2023-07-30T11:48:36;99784.03;;;23.28;100.00
31761;BME280;18335;51.486;7.562;2023-07-30T11:51:03;99776.94;;;23.59;100.00
31761;BME280;18335;51.486;7.562;2023-07-30T11:53:46;99763.47;;;23.78;100.00
31761;BME280;18335;51.486;7.562;2023-07-30T11:56:17;99773.78;;;23.77;100.00
31761;BME280;18335;51.486;7.562;2023-07-30T11:58:44;99780.25;;;23.83;100.00
31761;BME280;18335;51.486;7.562;2023-07-30T12:01:12;99778.63;;;22.61;100.00
31761;BME280;18335;51.486;7.562;2023-07-30T12:03:38;99771.94;;;23.39;100.00
31761;BME280;18335;51.486;7.562;2023-07-30T12:06:06;99778.59;;;22.95;100.00
31761;BME280;18335;51.486;7.562;2023-07-30T12:08:34;99771.13;;;22.62;100.00
31761;BME280;18335;51.486;7.562;2023-07-30T12:11:07;99775.19;;;22.38;100.00
31761;BME280;18335;51.486;7.562;2023-07-30T12:13:34;99783.03;;;22.57;100.00
31761;BME280;18335;51.486;7.562;2023-07-30T12:16:08;99779.59;;;23.05;100.00
31761;BME280;18335;51.486;7.562;2023-07-30T12:18:37;99773.44;;;23.47;100.00
31761;BME280;18335;51.486;7.562;2023-07-30T12:21:04;99767.19;;;23.18;100.00
31761;BME280;18335;51.486;7.562;2023-07-30T12:23:32;99776.88;;;23.32;100.00
31761;BME280;18335;51.486;7.562;2023-07-30T12:25:59;99765.84;;;23.64;100.00
31761;BME280;18335;51.486;7.562;2023-07-30T12:28:27;99785.00;;;23.60;100.00
31761;BME280;18335;51.486;7.562;2023-07-30T12:30:54;99778.16;;;23.68;100.00
31761;BME280;18335;51.486;7.562;2023-07-30T12:33:21;99777.03;;;23.04;100.00
31761;BME280;18335;51.486;7.562;2023-07-30T12:35:48;99793.41;;;23.00;100.00
31761;BME280;18335;51.486;7.562;2023-07-30T12:38:16;99781.72;;;23.20;100.00
31761;BME280;18335;51.486;7.562;2023-07-30T12:40:42;99786.09;;;23.16;100.00
31761;BME280;18335;51.486;7.562;2023-07-30T12:43:09;99771.50;;;23.47;100.00
31761;BME280;18335;51.486;7.562;2023-07-30T12:45:37;99786.81;;;23.28;100.00
31761;BME280;18335;51.486;7.562;2023-07-30T12:48:04;99781.91;;;23.13;100.00
31761;BME280;18335;51.486;7.562;2023-07-30T12:50:33;99787.72;;;22.90;100.00
31761;BME280;18335;51.486;7.562;2023-07-30T12:52:59;99774.66;;;23.12;100.00